Flight Briefing for CPX217

Departure Arrival
Sacramento International Airport (KSMF)
Click to view FAA NOTAMS
Chicago/Rockford International Airport (KRFD)
Click to view FAA NOTAMS
Departure Time Arrival Time
0520 UTC 0955 UTC
Aircraft Distance
B767-300BDSF 1511nm
Departure METAR Arrival METAR
KSMF 221053Z 14008KT 10SM CLR 08/06 A3013 RMK AO2 SLP202 T00830061 KRFD 221054Z 31006KT 10SM CLR 01/M02 A3002 RMK AO2 SLP171 T00111017
Suggested Route
SCTWN2 RALEY INSLO DTA DBL J60 IOW PLL


View recent IFR Routes data
Notes



Charts and Procedures

Charts for KSMF
No chart available
Charts for KRFD
No chart available

Windy.com Weather Map